Time;durP1;ratioP1;P1;durP2;ratioP2;P2;SDS_P1;SDS_P2;PMS_P1;PMS_P2;Temp;Humidity;BMP_temperature;BMP_pressure;BME280_temperature;BME280_humidity;BME280_pressure;Samples;Min_cycle;Max_cycle;Signal;HPM_P1;HPM_P2
2021/10/28 00:13:47;;;;;;;10.13;7.67;;;13.10;99.90;;;;;;5039414;28;20228;-66
2021/10/28 00:16:18;;;;;;;10.10;7.33;;;13.10;99.90;;;;;;5050155;28;20613;-66
2021/10/28 00:18:48;;;;;;;8.77;7.37;;;13.10;99.90;;;;;;5038177;28;20211;-67
2021/10/28 00:21:16;;;;;;;10.27;8.10;;;13.10;99.90;;;;;;5040665;28;20210;-67
2021/10/28 00:23:47;;;;;;;10.07;7.70;;;13.10;99.90;;;;;;5040652;28;20292;-66
2021/10/28 00:26:15;;;;;;;9.87;7.53;;;13.10;99.90;;;;;;5046370;28;20214;-66
2021/10/28 00:28:42;;;;;;;10.40;7.90;;;13.10;99.90;;;;;;5036052;28;20523;-66
2021/10/28 00:31:09;;;;;;;10.10;8.43;;;13.10;99.90;;;;;;5032693;28;20206;-67
2021/10/28 00:33:36;;;;;;;11.20;7.70;;;13.10;99.90;;;;;;5045508;28;20230;-67
2021/10/28 00:36:06;;;;;;;11.77;8.33;;;13.10;99.90;;;;;;5040108;28;20211;-67
2021/10/28 00:38:35;;;;;;;11.00;7.80;;;13.10;99.90;;;;;;5045889;28;20206;-67
2021/10/28 00:41:04;;;;;;;9.53;7.77;;;13.00;99.90;;;;;;5045121;28;20636;-66
2021/10/28 00:43:31;;;;;;;10.37;8.13;;;13.10;99.90;;;;;;5048081;28;20198;-68
2021/10/28 00:45:58;;;;;;;11.53;8.23;;;13.10;99.90;;;;;;5050086;28;20209;-67
2021/10/28 00:48:25;;;;;;;10.63;8.30;;;13.20;99.90;;;;;;5049673;28;20214;-66
2021/10/28 00:50:54;;;;;;;11.17;7.93;;;13.10;99.90;;;;;;5050639;28;20625;-67
2021/10/28 00:53:23;;;;;;;10.90;8.40;;;13.10;99.90;;;;;;5051394;28;20256;-67
2021/10/28 00:55:52;;;;;;;9.53;8.37;;;13.10;99.90;;;;;;5051616;28;20634;-66
2021/10/28 00:58:22;;;;;;;10.13;8.40;;;13.10;99.90;;;;;;5044072;28;20210;-67
2021/10/28 01:00:51;;;;;;;9.47;8.27;;;13.10;99.90;;;;;;5044701;28;20206;-66
2021/10/28 01:03:18;;;;;;;10.57;7.60;;;13.10;99.90;;;;;;5051843;28;20206;-66
2021/10/28 01:05:45;;;;;;;13.10;7.77;;;13.10;99.90;;;;;;5051290;28;20273;-67
2021/10/28 01:08:13;;;;;;;9.83;7.97;;;13.10;99.90;;;;;;5046271;28;20212;-66
2021/10/28 01:10:40;;;;;;;13.13;8.10;;;13.10;99.90;;;;;;5040165;28;20652;-68
2021/10/28 01:13:07;;;;;;;9.63;7.90;;;13.10;99.90;;;;;;5037135;28;20631;-66
2021/10/28 01:15:36;;;;;;;10.10;8.87;;;13.10;99.90;;;;;;5043575;28;20613;-66
2021/10/28 01:18:08;;;;;;;11.40;8.37;;;13.10;99.90;;;;;;5031603;28;20211;-68
2021/10/28 01:20:37;;;;;;;9.47;7.80;;;13.10;99.90;;;;;;5050719;28;20212;-68
2021/10/28 01:23:04;;;;;;;18.37;9.37;;;13.10;99.90;;;;;;5048274;28;20665;-67
2021/10/28 01:25:31;;;;;;;9.83;8.23;;;13.10;99.90;;;;;;5046294;28;20213;-67
2021/10/28 01:27:58;;;;;;;9.50;8.07;;;13.10;99.90;;;;;;5044058;28;20832;-67
2021/10/28 01:30:25;;;;;;;11.67;8.90;;;13.10;99.90;;;;;;5048764;28;20210;-66
2021/10/28 01:32:52;;;;;;;9.97;8.27;;;13.10;99.90;;;;;;5040239;28;20333;-67
2021/10/28 01:35:19;;;;;;;11.37;7.90;;;13.10;99.90;;;;;;5040122;28;20563;-66
2021/10/28 01:37:48;;;;;;;13.50;8.40;;;13.10;99.90;;;;;;5033335;28;20201;-66
2021/10/28 01:40:15;;;;;;;9.83;8.17;;;13.10;99.90;;;;;;5030783;28;20207;-67
2021/10/28 01:42:47;;;;;;;10.50;7.63;;;13.10;99.90;;;;;;5045366;28;20210;-67
2021/10/28 01:45:14;;;;;;;10.20;8.33;;;13.10;99.90;;;;;;5048811;28;20202;-67
2021/10/28 01:47:41;;;;;;;11.13;7.80;;;13.10;99.90;;;;;;5051049;28;20214;-67
2021/10/28 01:50:09;;;;;;;13.10;8.37;;;13.10;99.90;;;;;;5049884;28;20241;-67
2021/10/28 01:52:39;;;;;;;8.03;7.17;;;13.00;99.90;;;;;;5048520;28;20210;-66
2021/10/28 01:55:09;;;;;;;10.53;8.00;;;13.00;99.90;;;;;;5042702;28;20292;-67
2021/10/28 01:57:40;;;;;;;9.97;7.90;;;13.10;99.90;;;;;;5039973;28;20235;-67
2021/10/28 02:00:14;;;;;;;10.63;8.33;;;13.10;99.90;;;;;;5048378;28;20297;-68
2021/10/28 02:02:41;;;;;;;9.50;7.63;;;13.00;99.90;;;;;;5053164;28;20216;-66
2021/10/28 02:05:09;;;;;;;9.07;7.00;;;13.00;99.90;;;;;;5041098;28;20206;-67
2021/10/28 02:07:36;;;;;;;9.60;7.40;;;13.00;99.90;;;;;;5054627;28;20640;-67
2021/10/28 02:10:04;;;;;;;9.13;7.10;;;13.00;99.90;;;;;;5038445;28;20266;-66
2021/10/28 02:12:33;;;;;;;9.23;6.73;;;13.00;99.90;;;;;;5050698;28;20213;-67
2021/10/28 02:15:00;;;;;;;8.10;7.30;;;13.00;99.90;;;;;;5036070;28;20311;-66
2021/10/28 02:17:27;;;;;;;8.87;6.80;;;13.00;99.90;;;;;;5033774;28;20210;-67
2021/10/28 02:19:54;;;;;;;10.40;7.00;;;13.00;99.90;;;;;;5043188;28;20208;-67
2021/10/28 02:22:21;;;;;;;11.47;6.73;;;13.00;99.90;;;;;;5040616;28;20224;-66
2021/10/28 02:24:48;;;;;;;7.80;7.03;;;13.00;99.90;;;;;;5034220;28;20199;-66
2021/10/28 02:27:15;;;;;;;8.43;6.67;;;13.00;99.90;;;;;;5033777;28;20210;-66
2021/10/28 02:29:43;;;;;;;6.70;5.97;;;13.00;99.90;;;;;;5033733;28;20302;-66
2021/10/28 02:32:10;;;;;;;7.47;6.40;;;13.00;99.90;;;;;;5042504;28;20217;-67
2021/10/28 02:34:37;;;;;;;8.50;6.67;;;13.10;99.90;;;;;;5044823;28;20594;-66
2021/10/28 02:37:05;;;;;;;7.90;5.97;;;13.00;99.90;;;;;;5046939;28;20195;-67
2021/10/28 02:39:32;;;;;;;6.77;6.07;;;13.00;99.90;;;;;;5039885;28;20213;-66
2021/10/28 02:41:59;;;;;;;8.03;6.67;;;13.00;99.90;;;;;;5047642;28;20217;-67
2021/10/28 02:44:26;;;;;;;6.83;5.90;;;13.00;99.90;;;;;;5044462;28;20229;-67
2021/10/28 02:46:54;;;;;;;7.03;6.17;;;13.00;99.90;;;;;;5052357;28;20210;-67
2021/10/28 02:49:22;;;;;;;6.77;6.07;;;13.00;99.90;;;;;;5052160;28;20202;-66
2021/10/28 02:51:49;;;;;;;7.57;6.00;;;13.00;99.90;;;;;;5051649;28;20230;-67
2021/10/28 02:54:16;;;;;;;7.37;5.87;;;13.00;99.90;;;;;;5039469;28;20345;-67
2021/10/28 02:56:43;;;;;;;7.93;6.30;;;13.00;99.90;;;;;;5046625;28;20226;-66
2021/10/28 02:59:10;;;;;;;6.80;5.90;;;13.10;99.90;;;;;;5038769;28;20207;-67
2021/10/28 03:01:42;;;;;;;8.23;6.50;;;13.00;99.90;;;;;;5051806;28;20198;-66
2021/10/28 03:04:10;;;;;;;7.93;6.30;;;13.10;99.90;;;;;;5053588;28;20467;-67
2021/10/28 03:06:39;;;;;;;7.27;6.43;;;13.00;99.90;;;;;;5043033;28;20217;-67
2021/10/28 03:09:07;;;;;;;8.23;6.23;;;13.10;99.90;;;;;;5035675;28;20238;-67
2021/10/28 03:11:34;;;;;;;9.10;5.87;;;13.10;99.90;;;;;;5052936;28;20206;-66
2021/10/28 03:14:01;;;;;;;12.90;6.27;;;13.10;99.90;;;;;;5051358;28;20233;-67
2021/10/28 03:16:32;;;;;;;9.00;6.43;;;13.00;99.90;;;;;;5053028;28;20206;-67
2021/10/28 03:27:29;;;;;;;10.30;6.73;;;13.00;99.90;;;;;;5056783;28;20795;-66
2021/10/28 03:29:56;;;;;;;7.23;6.33;;;13.00;99.90;;;;;;5068599;28;20652;-67
2021/10/28 03:32:23;;;;;;;12.10;6.90;;;13.00;99.90;;;;;;5067674;28;20255;-67
2021/10/28 03:34:51;;;;;;;9.27;6.60;;;13.00;99.90;;;;;;5070646;28;20213;-67
2021/10/28 03:37:23;;;;;;;7.77;6.27;;;13.10;99.90;;;;;;5069175;28;20209;-67
2021/10/28 03:40:08;;;;;;;7.87;6.57;;;13.10;99.90;;;;;;5068982;28;20263;-67
2021/10/28 03:46:08;;;;;;;8.70;6.17;;;13.10;99.90;;;;;;5062316;28;20745;-67
2021/10/28 04:05:44;;;;;;;8.23;7.37;;;13.00;99.90;;;;;;5065618;28;20276;-66
2021/10/28 04:30:11;;;;;;;8.70;7.17;;;12.90;99.90;;;;;;5063350;28;20728;-66
2021/10/28 04:32:38;;;;;;;8.17;7.33;;;12.90;99.90;;;;;;5053816;28;20205;-66
2021/10/28 04:35:06;;;;;;;9.93;7.80;;;12.90;99.90;;;;;;5034709;28;20207;-66
2021/10/28 04:37:32;;;;;;;9.33;7.83;;;12.90;99.90;;;;;;5049374;28;20700;-67
2021/10/28 04:39:59;;;;;;;8.53;7.53;;;12.90;99.90;;;;;;5053822;28;20206;-67
2021/10/28 04:42:28;;;;;;;8.57;7.70;;;12.90;99.90;;;;;;5051865;28;20214;-67
2021/10/28 04:44:55;;;;;;;11.43;7.70;;;12.90;99.90;;;;;;5036674;28;20253;-66
2021/10/28 04:47:22;;;;;;;10.83;7.83;;;12.90;99.90;;;;;;5052568;28;20298;-67
2021/10/28 04:49:48;;;;;;;8.30;7.40;;;12.90;99.90;;;;;;5045301;28;20215;-66
2021/10/28 04:52:15;;;;;;;11.27;8.00;;;12.90;99.90;;;;;;5046573;28;20587;-66
2021/10/28 04:54:42;;;;;;;10.20;8.27;;;12.90;99.90;;;;;;5053751;28;20658;-67
2021/10/28 04:57:09;;;;;;;9.20;8.00;;;12.90;99.90;;;;;;5051091;28;20229;-66
2021/10/28 04:59:38;;;;;;;9.50;8.20;;;12.90;99.90;;;;;;5053416;28;20206;-67
2021/10/28 05:02:06;;;;;;;10.83;8.20;;;13.00;99.90;;;;;;5044831;28;20225;-66
2021/10/28 05:04:32;;;;;;;12.03;7.80;;;13.00;99.90;;;;;;5051489;28;20210;-67
2021/10/28 05:06:59;;;;;;;8.80;7.77;;;12.90;99.90;;;;;;5047065;28;20562;-67
2021/10/28 05:09:28;;;;;;;9.33;8.40;;;12.90;99.90;;;;;;5046886;28;20567;-67
2021/10/28 05:11:55;;;;;;;10.90;8.73;;;12.90;99.90;;;;;;5043403;28;20185;-67
2021/10/28 05:14:22;;;;;;;11.40;9.03;;;12.90;99.90;;;;;;5041448;28;20214;-67
2021/10/28 05:16:56;;;;;;;10.10;8.97;;;13.00;99.90;;;;;;5039479;28;20205;-67
2021/10/28 05:19:23;;;;;;;11.83;9.30;;;12.90;99.90;;;;;;5041529;28;20583;-67
2021/10/28 05:21:50;;;;;;;12.37;9.47;;;12.90;99.90;;;;;;5050206;28;20690;-68
2021/10/28 05:24:17;;;;;;;11.17;9.23;;;12.90;99.90;;;;;;5052331;28;20583;-68
2021/10/28 05:26:44;;;;;;;11.30;9.03;;;12.90;99.90;;;;;;5050849;28;20567;-68
2021/10/28 05:29:11;;;;;;;11.13;9.37;;;12.80;99.90;;;;;;5053051;28;20213;-69
2021/10/28 05:31:38;;;;;;;12.57;9.40;;;12.90;99.90;;;;;;5048048;28;20286;-69
2021/10/28 05:34:06;;;;;;;10.70;9.03;;;12.90;99.90;;;;;;5049071;28;20212;-69
2021/10/28 05:36:33;;;;;;;13.17;9.43;;;12.90;99.90;;;;;;5049572;28;20210;-68
2021/10/28 05:39:00;;;;;;;13.73;10.00;;;12.90;99.90;;;;;;5051527;28;20206;-67
2021/10/28 05:41:27;;;;;;;11.40;9.30;;;12.90;99.90;;;;;;5052507;28;20218;-70
2021/10/28 05:43:55;;;;;;;10.77;9.30;;;12.90;99.90;;;;;;5051117;28;20264;-71
2021/10/28 05:46:21;;;;;;;14.03;10.40;;;12.90;99.90;;;;;;5043308;28;20341;-70
2021/10/28 05:48:48;;;;;;;11.30;9.83;;;12.90;99.90;;;;;;5049762;28;20208;-70
2021/10/28 05:51:17;;;;;;;12.20;10.03;;;12.90;99.90;;;;;;5049992;28;20198;-72
2021/10/28 05:53:45;;;;;;;12.80;10.70;;;12.90;99.90;;;;;;5043406;28;20233;-71
2021/10/28 05:56:12;;;;;;;13.27;10.53;;;12.90;99.90;;;;;;5046506;28;20230;-73
2021/10/28 05:58:38;;;;;;;13.77;10.90;;;12.90;99.90;;;;;;5042475;28;20209;-72
2021/10/28 06:01:05;;;;;;;11.33;9.80;;;12.90;99.90;;;;;;5044355;28;20226;-72
2021/10/28 06:03:35;;;;;;;11.73;10.03;;;12.90;99.90;;;;;;5048870;28;20210;-70
2021/10/28 06:06:02;;;;;;;11.53;9.73;;;12.90;99.90;;;;;;5047704;28;20210;-68
2021/10/28 06:08:31;;;;;;;12.57;10.07;;;13.00;99.90;;;;;;5044844;28;20210;-68
2021/10/28 06:10:58;;;;;;;13.10;10.67;;;13.00;99.90;;;;;;5040664;28;20198;-76
2021/10/28 06:13:26;;;;;;;12.07;10.23;;;13.00;99.90;;;;;;5040709;28;20207;-69
2021/10/28 06:15:53;;;;;;;11.70;9.93;;;13.00;99.90;;;;;;5038416;28;20202;-69
2021/10/28 06:18:38;;;;;;;12.87;9.73;;;13.00;99.90;;;;;;5047619;28;20288;-68
2021/10/28 06:21:06;;;;;;;12.57;10.27;;;13.00;99.90;;;;;;5039813;28;20238;-68
2021/10/28 06:23:35;;;;;;;10.73;9.53;;;13.00;99.90;;;;;;5041622;28;20217;-67
2021/10/28 06:26:02;;;;;;;13.23;10.80;;;13.00;99.90;;;;;;5050827;28;20218;-68
2021/10/28 06:28:29;;;;;;;14.60;9.87;;;13.00;99.90;;;;;;5051975;28;20214;-68
2021/10/28 06:30:56;;;;;;;12.17;10.00;;;13.00;99.90;;;;;;5051426;28;20202;-68
2021/10/28 06:33:25;;;;;;;13.43;9.67;;;13.10;99.90;;;;;;5051131;28;20289;-68
2021/10/28 06:35:52;;;;;;;13.07;9.40;;;13.00;99.90;;;;;;5046295;28;20236;-68
2021/10/28 06:38:20;;;;;;;11.37;9.07;;;13.10;99.90;;;;;;5049925;28;20278;-68
2021/10/28 06:40:48;;;;;;;11.60;9.17;;;13.10;99.90;;;;;;5032541;28;20222;-66
2021/10/28 06:43:15;;;;;;;12.83;9.93;;;13.10;99.90;;;;;;5051459;28;20665;-69
2021/10/28 06:45:42;;;;;;;15.83;9.50;;;13.20;99.90;;;;;;5046721;28;20292;-69
2021/10/28 06:48:09;;;;;;;11.93;9.77;;;13.10;99.90;;;;;;5039187;28;20289;-70
2021/10/28 06:50:41;;;;;;;13.90;10.47;;;13.20;99.90;;;;;;5037186;28;20302;-68
2021/10/28 06:53:19;;;;;;;14.43;9.50;;;13.20;99.90;;;;;;5050726;28;20204;-67
2021/10/28 06:55:51;;;;;;;15.60;10.23;;;13.20;99.90;;;;;;5047647;28;20243;-69
2021/10/28 07:03:47;;;;;;;15.43;10.53;;;13.30;99.90;;;;;;5045847;28;20338;-67
2021/10/28 07:06:18;;;;;;;15.23;11.67;;;13.30;99.90;;;;;;5051669;28;20210;-70
2021/10/28 07:08:48;;;;;;;15.30;10.97;;;13.30;99.90;;;;;;5044843;28;20206;-68
2021/10/28 07:11:20;;;;;;;14.73;11.13;;;13.30;99.90;;;;;;5043135;28;20585;-66
2021/10/28 07:13:49;;;;;;;14.30;10.90;;;13.30;99.90;;;;;;5041971;28;20242;-67
2021/10/28 07:16:22;;;;;;;16.70;10.87;;;13.30;99.90;;;;;;5050896;28;20233;-68
2021/10/28 07:18:54;;;;;;;16.37;11.30;;;13.40;99.90;;;;;;5033342;28;20214;-67
2021/10/28 07:35:40;;;;;;;14.87;11.03;;;13.50;99.90;;;;;;5043904;28;20237;-68
2021/10/28 07:57:42;;;;;;;15.37;11.20;;;13.60;99.90;;;;;;5037313;28;20225;-71
2021/10/28 08:00:26;;;;;;;15.60;11.30;;;13.60;99.90;;;;;;5039769;28;20221;-72
2021/10/28 08:19:28;;;;;;;13.13;9.77;;;13.80;99.90;;;;;;5041157;28;20206;-71
2021/10/28 08:21:56;;;;;;;17.17;12.80;;;13.80;99.90;;;;;;5048581;28;20297;-71
2021/10/28 08:30:01;;;;;;;15.47;11.63;;;13.90;99.90;;;;;;5042167;28;20209;-73
2021/10/28 08:32:29;;;;;;;17.20;12.27;;;14.00;99.90;;;;;;5046694;28;20477;-73
2021/10/28 08:34:59;;;;;;;13.35;11.82;;;14.00;99.90;;;;;;5041258;28;20445;-73
2021/10/28 08:37:31;;;;;;;11.90;10.03;;;14.00;99.90;;;;;;5047561;28;20233;-73
2021/10/28 08:39:58;;;;;;;13.98;10.98;;;14.00;99.90;;;;;;5039724;28;20537;-71
2021/10/28 08:42:25;;;;;;;12.83;9.23;;;14.00;99.90;;;;;;5054788;28;20320;-74
2021/10/28 08:44:54;;;;;;;17.27;10.63;;;14.00;99.90;;;;;;5044486;28;20210;-72
2021/10/28 08:47:24;;;;;;;20.60;14.48;;;14.00;99.90;;;;;;5048248;28;20526;-71
2021/10/28 08:49:56;;;;;;;15.40;10.33;;;14.10;99.90;;;;;;5036131;28;20635;-76
2021/10/28 08:55:27;;;;;;;13.83;9.23;;;14.20;99.90;;;;;;5022527;28;20261;-74
2021/10/28 09:26:13;;;;;;;13.87;9.60;;;14.40;99.90;;;;;;5140272;27;20669;-70
2021/10/28 09:28:43;;;;;;;11.23;9.30;;;14.50;99.90;;;;;;5119981;28;20210;-70
2021/10/28 09:31:13;;;;;;;13.23;10.20;;;14.60;99.90;;;;;;5121096;28;20207;-70
2021/10/28 09:33:52;;;;;;;14.53;9.70;;;14.60;99.90;;;;;;5122915;27;20213;-71
2021/10/28 09:44:49;;;;;;;13.03;9.33;;;14.90;99.90;;;;;;5122550;27;20225;-71
2021/10/28 09:50:19;;;;;;;18.77;10.20;;;15.00;99.90;;;;;;5122542;27;20211;-68
2021/10/28 09:53:07;;;;;;;12.70;10.13;;;15.10;99.90;;;;;;5129299;27;20231;-68
2021/10/28 09:58:32;;;;;;;12.90;9.57;;;15.30;99.90;;;;;;5099219;28;20224;-68
2021/10/28 10:01:01;;;;;;;14.53;9.83;;;15.50;99.90;;;;;;5094146;28;20205;-68
2021/10/28 10:03:31;;;;;;;12.60;9.30;;;15.50;99.90;;;;;;5098654;28;20275;-68
2021/10/28 10:06:01;;;;;;;9.87;8.60;;;15.60;99.90;;;;;;5101202;28;20314;-68
2021/10/28 10:08:28;;;;;;;17.47;9.47;;;15.60;99.90;;;;;;5102361;28;20545;-70
2021/10/28 10:10:56;;;;;;;10.60;8.47;;;15.60;99.90;;;;;;5107139;28;20257;-69
2021/10/28 10:13:27;;;;;;;12.27;8.40;;;15.60;99.90;;;;;;5104791;28;20209;-70
2021/10/28 10:15:57;;;;;;;9.07;7.60;;;15.70;99.90;;;;;;5098832;28;20215;-68
2021/10/28 10:18:25;;;;;;;10.63;7.27;;;15.70;99.90;;;;;;5107108;28;20204;-68
2021/10/28 10:20:55;;;;;;;10.03;6.40;;;15.70;99.90;;;;;;5108164;28;20626;-69
2021/10/28 10:23:35;;;;;;;7.53;5.80;;;15.70;99.90;;;;;;5107595;28;20628;-70
2021/10/28 12:44:15;;;;;;;12.83;9.07;;;15.90;99.90;;;;;;5094901;28;20254;-68
2021/10/28 12:55:53;;;;;;;13.33;10.53;;;16.40;99.90;;;;;;5154661;27;20626;-69
2021/10/28 13:07:16;;;;;;;14.73;12.43;;;16.30;99.90;;;;;;5097161;28;20436;-69
2021/10/28 13:48:22;;;;;;;18.13;12.90;;;15.10;99.90;;;;;;5103501;28;20205;-69
2021/10/28 15:02:50;;;;;;;21.90;14.90;;;13.60;99.90;;;;;;5050708;28;20208;-70
2021/10/28 15:30:07;;;;;;;20.43;15.47;;;13.30;99.90;;;;;;5087739;28;20598;-68
2021/10/28 15:38:18;;;;;;;21.13;15.73;;;13.20;99.90;;;;;;5091947;28;20669;-68
2021/10/28 15:41:11;;;;;;;20.50;15.10;;;13.10;99.90;;;;;;5091832;28;20311;-70
2021/10/28 16:01:02;;;;;;;23.30;15.60;;;12.90;99.90;;;;;;5149420;27;20557;-69
2021/10/28 16:22:46;;;;;;;21.97;14.40;;;12.70;99.90;;;;;;5128490;28;20260;-71
2021/10/28 16:25:13;;;;;;;22.63;16.00;;;12.70;99.90;;;;;;5127989;28;20203;-71
2021/10/28 16:27:40;;;;;;;24.07;16.40;;;12.70;99.90;;;;;;5134532;27;20317;-70
2021/10/28 16:30:08;;;;;;;21.63;16.00;;;12.60;99.90;;;;;;5126097;27;20199;-69
2021/10/28 16:32:38;;;;;;;20.33;16.47;;;12.60;99.90;;;;;;5121187;27;20818;-67
2021/10/28 16:35:06;;;;;;;22.57;16.03;;;12.60;99.90;;;;;;5131990;27;20586;-67
2021/10/28 16:37:34;;;;;;;22.40;16.37;;;12.60;99.90;;;;;;5118550;27;20246;-68
2021/10/28 16:40:01;;;;;;;20.63;15.70;;;12.60;99.90;;;;;;5129378;27;20322;-68
2021/10/28 16:42:28;;;;;;;23.17;16.53;;;12.60;99.90;;;;;;5142191;27;20624;-68
2021/10/28 16:44:55;;;;;;;23.50;15.90;;;12.50;99.90;;;;;;5123283;27;20570;-70
2021/10/28 16:47:23;;;;;;;24.60;16.10;;;12.50;99.90;;;;;;5132246;27;20202;-67
2021/10/28 16:49:51;;;;;;;21.27;16.47;;;12.50;99.90;;;;;;5127296;27;20245;-68
2021/10/28 16:52:18;;;;;;;23.20;16.57;;;12.40;99.90;;;;;;5128066;28;20577;-68
2021/10/28 16:54:45;;;;;;;22.80;16.87;;;12.50;99.90;;;;;;5127025;27;20692;-69
2021/10/28 16:57:12;;;;;;;23.77;17.77;;;12.40;99.90;;;;;;5128573;27;20916;-68
2021/10/28 16:59:39;;;;;;;23.20;17.87;;;12.30;99.90;;;;;;5136572;27;20353;-70
2021/10/28 17:02:06;;;;;;;25.30;17.73;;;12.30;99.90;;;;;;5131685;27;20211;-70
2021/10/28 17:04:33;;;;;;;24.63;18.03;;;12.30;99.90;;;;;;5131045;27;20299;-69
2021/10/28 17:07:01;;;;;;;22.40;17.33;;;12.20;99.90;;;;;;5138098;27;20199;-69
2021/10/28 17:09:28;;;;;;;23.20;18.50;;;12.20;99.90;;;;;;5139552;27;20215;-68
2021/10/28 17:11:56;;;;;;;23.37;18.37;;;12.20;99.90;;;;;;5127129;27;20734;-68
2021/10/28 17:14:23;;;;;;;25.07;19.10;;;12.20;99.90;;;;;;5131886;27;20663;-68
2021/10/28 17:16:50;;;;;;;22.73;16.57;;;12.20;99.90;;;;;;5111773;28;20200;-68
2021/10/28 17:19:19;;;;;;;24.80;18.43;;;12.10;99.90;;;;;;5113185;28;20318;-68
2021/10/28 17:21:46;;;;;;;24.43;17.40;;;12.10;99.90;;;;;;5113401;28;20215;-68
2021/10/28 17:24:25;;;;;;;22.87;17.40;;;12.10;99.90;;;;;;5113368;28;20299;-68
2021/10/28 17:26:52;;;;;;;25.20;18.30;;;12.10;99.90;;;;;;5124441;27;20211;-69
2021/10/28 17:29:19;;;;;;;26.57;18.33;;;12.10;99.90;;;;;;5113245;28;20563;-69
2021/10/28 17:31:46;;;;;;;23.60;18.23;;;12.00;99.90;;;;;;5119291;27;20233;-68
2021/10/28 17:34:13;;;;;;;27.83;19.07;;;12.00;99.90;;;;;;5123997;27;20291;-68
2021/10/28 17:36:40;;;;;;;23.43;18.23;;;12.00;99.90;;;;;;5113644;28;20879;-69
2021/10/28 17:39:07;;;;;;;25.93;18.73;;;12.00;99.90;;;;;;5119828;27;20273;-68
2021/10/28 17:41:35;;;;;;;21.63;17.43;;;12.00;99.90;;;;;;5129338;27;20207;-67
2021/10/28 17:44:04;;;;;;;27.80;19.13;;;11.90;99.90;;;;;;5112221;27;20213;-69
2021/10/28 17:46:31;;;;;;;26.20;19.30;;;11.90;99.90;;;;;;5123447;27;20652;-69
2021/10/28 17:48:58;;;;;;;21.63;16.93;;;11.80;99.90;;;;;;5113755;27;20200;-69
2021/10/28 17:51:25;;;;;;;25.03;18.63;;;11.80;99.90;;;;;;5114098;28;20281;-69
2021/10/28 17:53:53;;;;;;;25.33;18.73;;;11.80;99.90;;;;;;5112914;28;20295;-68
2021/10/28 17:56:21;;;;;;;25.17;19.63;;;11.80;99.90;;;;;;5114125;28;20303;-69
2021/10/28 17:58:50;;;;;;;25.80;18.97;;;11.80;99.90;;;;;;5113244;28;20231;-69
2021/10/28 18:01:19;;;;;;;31.10;20.27;;;11.70;99.90;;;;;;5113438;28;20212;-69
2021/10/28 18:03:47;;;;;;;27.60;19.30;;;11.70;99.90;;;;;;5122844;27;20215;-69
2021/10/28 18:06:14;;;;;;;29.37;19.47;;;11.70;99.90;;;;;;5118202;27;20249;-68
2021/10/28 18:08:40;;;;;;;25.50;19.20;;;11.70;99.90;;;;;;5113514;28;20212;-71
2021/10/28 18:11:08;;;;;;;26.70;19.63;;;11.70;99.90;;;;;;5114088;28;20295;-69
2021/10/28 18:13:35;;;;;;;26.13;17.73;;;11.70;99.90;;;;;;5113190;28;20208;-69
2021/10/28 18:16:06;;;;;;;30.23;19.63;;;11.70;99.90;;;;;;5112941;28;20207;-69
2021/10/28 18:18:33;;;;;;;26.23;19.10;;;11.70;99.90;;;;;;5112882;28;20268;-69
2021/10/28 18:21:01;;;;;;;31.47;19.63;;;11.70;99.90;;;;;;5109643;28;20227;-69
2021/10/28 18:23:29;;;;;;;28.30;19.40;;;11.70;99.90;;;;;;5110982;28;20583;-68
2021/10/28 18:25:56;;;;;;;27.07;19.70;;;11.70;99.90;;;;;;5112699;28;20702;-69
2021/10/28 18:28:23;;;;;;;29.70;20.87;;;11.60;99.90;;;;;;5104706;28;20291;-68
2021/10/28 18:30:50;;;;;;;31.57;20.53;;;11.60;99.90;;;;;;5113664;27;20616;-68
2021/10/28 18:33:18;;;;;;;25.00;18.47;;;11.60;99.90;;;;;;5118434;27;20214;-67
2021/10/28 18:35:45;;;;;;;28.83;20.57;;;11.60;99.90;;;;;;5112722;27;20203;-68
2021/10/28 18:38:12;;;;;;;30.57;21.03;;;11.50;99.90;;;;;;5122262;27;20209;-69
2021/10/28 18:40:40;;;;;;;32.03;20.47;;;11.50;99.90;;;;;;5121035;27;20215;-68
2021/10/28 18:43:07;;;;;;;27.67;20.37;;;11.50;99.90;;;;;;5123041;27;20204;-69
2021/10/28 18:45:33;;;;;;;27.73;20.47;;;11.50;99.90;;;;;;5115838;27;20200;-69
2021/10/28 18:48:01;;;;;;;28.67;21.07;;;11.40;99.90;;;;;;5111787;27;20222;-68
2021/10/28 18:50:29;;;;;;;30.67;20.73;;;11.40;99.90;;;;;;5117685;27;20282;-67
2021/10/28 18:52:56;;;;;;;33.30;21.43;;;11.40;99.90;;;;;;5112951;27;20207;-69
2021/10/28 18:55:23;;;;;;;32.43;21.87;;;11.30;99.90;;;;;;5114417;27;20214;-69
2021/10/28 18:57:50;;;;;;;29.13;20.87;;;11.30;99.90;;;;;;5111530;27;20255;-68
2021/10/28 19:00:17;;;;;;;31.60;20.77;;;11.30;99.90;;;;;;5112274;27;20230;-69
2021/10/28 19:02:44;;;;;;;30.03;20.53;;;11.20;99.90;;;;;;5116665;27;20199;-69
2021/10/28 19:05:10;;;;;;;29.53;20.57;;;11.20;99.90;;;;;;5114651;27;20207;-68
2021/10/28 19:07:39;;;;;;;29.77;20.77;;;11.20;99.90;;;;;;5119588;27;20203;-67
2021/10/28 19:10:07;;;;;;;30.83;21.73;;;11.20;99.90;;;;;;5124761;27;20208;-66
2021/10/28 19:12:34;;;;;;;33.77;22.60;;;11.10;99.90;;;;;;5118105;27;20208;-66
2021/10/28 19:15:01;;;;;;;33.23;22.57;;;11.10;99.90;;;;;;5114634;27;20207;-67
2021/10/28 19:17:28;;;;;;;34.87;22.03;;;11.10;99.90;;;;;;5114249;27;20302;-66
2021/10/28 19:19:55;;;;;;;35.27;22.20;;;11.00;99.90;;;;;;5123390;27;20267;-66
2021/10/28 19:22:24;;;;;;;32.73;21.83;;;11.00;99.90;;;;;;5121592;27;20234;-67
2021/10/28 19:24:52;;;;;;;40.13;28.63;;;11.00;99.90;;;;;;5125376;27;20819;-67
2021/10/28 19:27:19;;;;;;;35.40;23.53;;;11.00;99.90;;;;;;5129277;27;20195;-67
2021/10/28 19:29:52;;;;;;;47.93;27.23;;;11.00;99.90;;;;;;5126192;27;20204;-67
2021/10/28 19:32:21;;;;;;;36.70;23.77;;;10.90;99.90;;;;;;5112483;27;20227;-67
2021/10/28 19:34:48;;;;;;;40.83;25.60;;;10.90;99.90;;;;;;5111158;28;20207;-68
2021/10/28 19:37:18;;;;;;;34.23;23.00;;;10.90;99.90;;;;;;5111169;28;20196;-68
2021/10/28 19:40:06;;;;;;;34.47;22.93;;;10.90;99.90;;;;;;5106946;28;20679;-67
2021/10/28 19:46:08;;;;;;;35.70;24.30;;;10.80;99.90;;;;;;5109261;28;20196;-68
2021/10/28 19:48:19;;;;;;;38.53;25.27;;;10.80;99.90;;;;;;5111256;28;20569;-67
2021/10/28 19:50:48;;;;;;;38.70;25.40;;;10.80;99.90;;;;;;5112030;28;20286;-65
2021/10/28 19:53:16;;;;;;;38.37;25.97;;;10.70;99.90;;;;;;5111071;28;20846;-66
2021/10/28 19:55:43;;;;;;;39.10;25.77;;;10.70;99.90;;;;;;5110082;28;20748;-66
2021/10/28 19:58:15;;;;;;;40.77;27.93;;;10.60;99.90;;;;;;5109337;28;20262;-67
2021/10/28 20:00:47;;;;;;;41.47;26.73;;;10.60;99.90;;;;;;5124345;28;20203;-67
2021/10/28 20:03:35;;;;;;;42.43;26.43;;;10.60;99.90;;;;;;5120211;28;20576;-66
2021/10/28 20:06:13;;;;;;;44.70;27.87;;;10.50;99.90;;;;;;5126286;28;20200;-66
2021/10/28 20:14:21;;;;;;;50.17;30.73;;;10.50;99.90;;;;;;5124782;28;20214;-65
2021/10/28 20:22:17;;;;;;;43.30;29.07;;;10.30;99.90;;;;;;5108019;28;20199;-67
2021/10/28 20:24:44;;;;;;;52.17;32.27;;;10.40;99.90;;;;;;5114522;28;20204;-68
2021/10/28 20:27:11;;;;;;;54.80;31.43;;;10.30;99.90;;;;;;5107657;28;20204;-69
2021/10/28 20:29:39;;;;;;;44.90;30.07;;;10.30;99.90;;;;;;5108652;28;20917;-69
2021/10/28 20:32:07;;;;;;;47.83;30.17;;;10.30;99.90;;;;;;5113299;28;20210;-69
2021/10/28 20:34:36;;;;;;;50.27;32.87;;;10.30;99.90;;;;;;5110238;28;20200;-69
2021/10/28 20:37:08;;;;;;;48.23;32.00;;;10.20;99.90;;;;;;5114817;28;20316;-69
2021/10/28 20:39:40;;;;;;;51.43;31.30;;;10.20;99.90;;;;;;5115976;28;20294;-70
2021/10/28 20:42:09;;;;;;;52.10;33.03;;;10.20;99.90;;;;;;5106501;28;21329;-70
2021/10/28 20:44:36;;;;;;;54.30;32.97;;;10.10;99.90;;;;;;5110076;28;20551;-69
2021/10/28 20:47:08;;;;;;;47.73;32.30;;;10.10;99.90;;;;;;5119008;27;20200;-68
2021/10/28 20:49:35;;;;;;;47.77;32.27;;;10.10;99.90;;;;;;5111098;28;20197;-68
2021/10/28 20:52:02;;;;;;;45.53;31.27;;;10.10;99.90;;;;;;5104668;28;20663;-70
2021/10/28 20:54:29;;;;;;;49.10;32.10;;;10.00;99.90;;;;;;5112040;28;20295;-71
2021/10/28 20:57:00;;;;;;;47.47;31.17;;;10.00;99.90;;;;;;5109512;28;20227;-70
2021/10/28 20:59:27;;;;;;;47.83;31.90;;;10.00;99.90;;;;;;5107849;28;20746;-70
2021/10/28 21:01:54;;;;;;;48.10;31.37;;;9.90;99.90;;;;;;5107947;28;20223;-70
2021/10/28 21:04:22;;;;;;;49.37;30.70;;;9.90;99.90;;;;;;5101975;28;20211;-70
2021/10/28 21:06:51;;;;;;;43.10;29.30;;;9.90;99.90;;;;;;5110618;28;20566;-69
2021/10/28 21:09:18;;;;;;;49.67;31.37;;;9.80;99.90;;;;;;5128942;27;20309;-70
2021/10/28 21:11:48;;;;;;;47.27;30.90;;;9.80;99.90;;;;;;5117491;27;20203;-69
2021/10/28 21:14:16;;;;;;;50.87;31.27;;;9.80;99.90;;;;;;5104746;28;20231;-69
2021/10/28 21:16:43;;;;;;;46.90;30.60;;;9.80;99.90;;;;;;5111865;28;20208;-69
2021/10/28 21:19:10;;;;;;;49.87;31.03;;;9.80;99.90;;;;;;5102305;28;20211;-69